Time;durP1;ratioP1;P1;durP2;ratioP2;P2;SDS_P1;SDS_P2;PMS_P1;PMS_P2;Temp;Humidity;BMP_temperature;BMP_pressure;BME280_temperature;BME280_humidity;BME280_pressure;Samples;Min_cycle;Max_cycle;Signal;HPM_P1;HPM_P2
2023/09/02 00:00:09;;;;;;;1.60;1.00;;;18.90;81.40;;;;;;5051530;28;20519;-52
2023/09/02 00:02:41;;;;;;;2.30;1.00;;;18.90;80.70;;;;;;5030178;28;20992;-54
2023/09/02 00:05:10;;;;;;;2.30;1.27;;;18.90;80.10;;;;;;5044402;28;20947;-54
2023/09/02 00:07:38;;;;;;;1.70;1.40;;;18.90;80.10;;;;;;5010542;28;20974;-52
2023/09/02 00:10:08;;;;;;;1.40;0.90;;;18.90;79.90;;;;;;5047896;28;20801;-52
2023/09/02 00:12:38;;;;;;;1.67;1.00;;;18.90;79.10;;;;;;5044409;28;20465;-52
2023/09/02 00:15:08;;;;;;;1.70;1.30;;;18.90;79.30;;;;;;5050037;28;20461;-53
2023/09/02 00:17:37;;;;;;;1.30;0.87;;;18.90;79.50;;;;;;5056290;28;20476;-51
2023/09/02 00:20:07;;;;;;;2.90;1.33;;;18.90;78.80;;;;;;5022365;28;20429;-51
2023/09/02 00:22:36;;;;;;;1.37;0.93;;;18.90;79.40;;;;;;5013452;28;20487;-51
2023/09/02 00:25:05;;;;;;;1.10;0.80;;;18.90;79.40;;;;;;5055966;28;20441;-53
2023/09/02 00:27:33;;;;;;;2.00;0.70;;;18.90;78.70;;;;;;5030615;28;20473;-52
2023/09/02 00:30:04;;;;;;;2.10;1.07;;;18.90;78.70;;;;;;5046476;28;21024;-52
2023/09/02 00:32:33;;;;;;;1.40;0.80;;;18.90;78.10;;;;;;5020410;28;20480;-51
2023/09/02 00:35:02;;;;;;;1.30;0.77;;;18.90;77.90;;;;;;5034422;28;20877;-52
2023/09/02 00:37:31;;;;;;;1.20;0.70;;;18.90;77.50;;;;;;5013199;28;20482;-50
2023/09/02 00:39:59;;;;;;;1.33;0.70;;;18.90;77.40;;;;;;5048618;28;20973;-51
2023/09/02 00:42:30;;;;;;;1.60;0.90;;;18.90;77.10;;;;;;5052440;28;20549;-52
2023/09/02 00:44:58;;;;;;;1.10;0.57;;;18.90;77.30;;;;;;5051238;28;20475;-52
2023/09/02 00:47:29;;;;;;;1.13;0.80;;;18.90;77.00;;;;;;5046629;28;20485;-56
2023/09/02 00:50:00;;;;;;;1.43;0.73;;;18.90;76.90;;;;;;5020532;28;20535;-53
2023/09/02 00:52:28;;;;;;;1.57;0.77;;;18.90;76.70;;;;;;5050578;28;20476;-51
2023/09/02 00:54:57;;;;;;;1.10;0.67;;;18.90;76.80;;;;;;5046720;28;20531;-50
2023/09/02 00:57:27;;;;;;;1.40;0.70;;;18.90;76.60;;;;;;5031519;28;20476;-52
2023/09/02 00:59:55;;;;;;;1.43;1.00;;;18.90;76.50;;;;;;5042248;28;20737;-52
2023/09/02 01:02:25;;;;;;;1.27;0.60;;;18.90;76.40;;;;;;5055642;28;20553;-52
2023/09/02 01:04:57;;;;;;;1.50;0.90;;;18.90;76.60;;;;;;5044596;28;20951;-51
2023/09/02 01:07:27;;;;;;;3.40;0.70;;;18.90;76.50;;;;;;5047567;28;20559;-52
2023/09/02 01:09:56;;;;;;;1.10;0.70;;;18.90;76.80;;;;;;5048082;28;20469;-52
2023/09/02 01:12:25;;;;;;;1.27;0.87;;;18.90;76.70;;;;;;5048987;28;20591;-51
2023/09/02 01:14:54;;;;;;;1.27;0.70;;;18.90;76.50;;;;;;5039921;28;20540;-51
2023/09/02 01:17:22;;;;;;;1.10;0.70;;;18.90;76.50;;;;;;5048268;28;20598;-51
2023/09/02 01:19:56;;;;;;;1.00;0.60;;;18.90;76.40;;;;;;5048623;28;20532;-51
2023/09/02 01:22:38;;;;;;;1.30;0.80;;;18.90;76.30;;;;;;5050257;28;20487;-52
2023/09/02 01:25:21;;;;;;;1.30;0.60;;;18.90;76.30;;;;;;5050194;28;20447;-52
2023/09/02 01:27:54;;;;;;;1.67;0.67;;;18.90;76.50;;;;;;5049930;28;20568;-51
2023/09/02 01:30:27;;;;;;;1.50;0.80;;;18.90;76.50;;;;;;5014593;28;20775;-52
2023/09/02 01:32:58;;;;;;;1.20;0.80;;;18.90;77.70;;;;;;5017908;28;20523;-52
2023/09/02 01:35:31;;;;;;;1.10;0.60;;;18.90;76.30;;;;;;5007171;28;20448;-53
2023/09/02 01:38:02;;;;;;;1.83;0.50;;;18.90;76.30;;;;;;5031732;28;20997;-52
2023/09/02 01:40:32;;;;;;;1.43;0.93;;;18.90;76.30;;;;;;5001678;28;20444;-52
2023/09/02 01:43:03;;;;;;;1.30;0.80;;;18.90;76.40;;;;;;5009363;28;20503;-54
2023/09/02 01:45:34;;;;;;;1.53;0.80;;;18.90;76.30;;;;;;5047297;28;20444;-52
2023/09/02 01:48:04;;;;;;;1.10;0.60;;;18.90;76.30;;;;;;5052296;28;21056;-53
2023/09/02 01:50:34;;;;;;;2.80;0.83;;;18.90;76.20;;;;;;5048609;28;21012;-53
2023/09/02 01:53:04;;;;;;;1.30;0.73;;;18.90;76.20;;;;;;5019146;28;20446;-53
2023/09/02 01:55:33;;;;;;;1.90;0.80;;;18.90;76.20;;;;;;5046083;28;20445;-52
2023/09/02 01:58:04;;;;;;;1.10;0.70;;;18.90;76.00;;;;;;5044970;28;20461;-53
2023/09/02 02:00:32;;;;;;;1.07;0.73;;;18.90;76.00;;;;;;5047726;28;20809;-52
2023/09/02 02:03:02;;;;;;;1.80;0.53;;;18.90;76.00;;;;;;5043914;28;20456;-51
2023/09/02 02:05:36;;;;;;;1.03;0.60;;;18.90;76.00;;;;;;5014133;28;20442;-53
2023/09/02 02:08:13;;;;;;;1.57;0.80;;;18.90;76.00;;;;;;5031046;28;20508;-52
2023/09/02 02:10:45;;;;;;;1.00;0.60;;;18.90;76.10;;;;;;5019425;28;20907;-53
2023/09/02 02:13:15;;;;;;;1.67;1.20;;;18.90;75.90;;;;;;5036373;28;20440;-52
2023/09/02 02:15:44;;;;;;;1.20;0.70;;;18.90;76.30;;;;;;5047442;28;20453;-52
2023/09/02 02:18:12;;;;;;;1.33;0.77;;;18.90;75.90;;;;;;5053292;28;20489;-52
2023/09/02 02:20:51;;;;;;;1.13;0.70;;;18.90;75.90;;;;;;5050765;28;20725;-53
2023/09/02 02:23:19;;;;;;;1.30;0.93;;;18.90;75.80;;;;;;5051921;28;20435;-53
2023/09/02 02:25:48;;;;;;;2.10;0.87;;;18.90;76.00;;;;;;5014956;28;20810;-50
2023/09/02 02:28:19;;;;;;;1.10;0.60;;;18.90;76.30;;;;;;5012415;28;21011;-54
2023/09/02 02:30:48;;;;;;;2.07;0.70;;;18.90;76.00;;;;;;5050214;28;20440;-52
2023/09/02 02:33:20;;;;;;;1.57;0.60;;;18.90;76.10;;;;;;5052571;28;21036;-54
2023/09/02 02:35:49;;;;;;;1.47;0.90;;;18.80;75.90;;;;;;5012885;28;20473;-52
2023/09/02 02:38:17;;;;;;;1.57;1.13;;;18.80;75.80;;;;;;5042152;28;20458;-51
2023/09/02 02:40:46;;;;;;;1.00;0.67;;;18.80;76.10;;;;;;5019306;28;20444;-52
2023/09/02 02:43:14;;;;;;;1.93;0.80;;;18.90;75.90;;;;;;5047032;28;20519;-50
2023/09/02 02:45:45;;;;;;;1.03;0.60;;;18.80;76.10;;;;;;5049251;28;20448;-52
2023/09/02 02:48:16;;;;;;;1.00;0.70;;;18.80;75.70;;;;;;5058865;28;20503;-53
2023/09/02 02:50:44;;;;;;;1.00;0.60;;;18.80;75.70;;;;;;5013685;28;20555;-52
2023/09/02 02:53:13;;;;;;;1.97;0.70;;;18.80;75.80;;;;;;5013927;28;20484;-53
2023/09/02 02:55:42;;;;;;;1.40;0.67;;;18.80;75.70;;;;;;5051391;28;20471;-52
2023/09/02 02:58:12;;;;;;;2.10;0.90;;;18.80;75.80;;;;;;5012658;28;20456;-53
2023/09/02 03:00:41;;;;;;;1.67;0.90;;;18.80;76.30;;;;;;5012181;28;20453;-52
2023/09/02 03:03:11;;;;;;;1.53;0.80;;;18.80;75.80;;;;;;5045532;28;20515;-52
2023/09/02 03:05:40;;;;;;;3.00;1.20;;;18.80;75.90;;;;;;5044540;28;20464;-53
2023/09/02 03:08:10;;;;;;;1.33;0.97;;;18.80;76.00;;;;;;5014489;28;20477;-51
2023/09/02 03:10:39;;;;;;;1.40;0.90;;;18.80;76.10;;;;;;5017042;28;20437;-50
2023/09/02 03:13:08;;;;;;;1.73;0.80;;;18.80;75.80;;;;;;5018227;28;20441;-54
2023/09/02 03:15:37;;;;;;;1.10;0.60;;;18.80;75.90;;;;;;5013459;28;21031;-52
2023/09/02 03:18:06;;;;;;;1.30;0.83;;;18.80;75.90;;;;;;5051269;28;20467;-50
2023/09/02 03:20:36;;;;;;;1.20;0.80;;;18.80;75.80;;;;;;5048856;28;20447;-52
2023/09/02 03:23:05;;;;;;;3.03;0.80;;;18.80;75.80;;;;;;5014019;28;20448;-53
2023/09/02 03:25:34;;;;;;;0.90;0.60;;;18.80;76.00;;;;;;5031506;28;20536;-53
2023/09/02 03:28:03;;;;;;;1.20;0.70;;;18.80;75.80;;;;;;5043612;28;20472;-50
2023/09/02 03:30:32;;;;;;;2.07;0.77;;;18.80;75.80;;;;;;5016196;28;20467;-53
2023/09/02 03:33:01;;;;;;;1.70;0.70;;;18.80;75.80;;;;;;5046654;28;20939;-50
2023/09/02 03:35:29;;;;;;;1.23;0.70;;;18.80;75.70;;;;;;5024271;28;20444;-51
2023/09/02 03:37:59;;;;;;;1.30;0.70;;;18.80;75.60;;;;;;5044792;28;20453;-53
2023/09/02 03:40:30;;;;;;;1.40;0.80;;;18.80;75.50;;;;;;5044365;28;20439;-53
2023/09/02 03:42:58;;;;;;;1.80;1.00;;;18.80;75.60;;;;;;5043553;28;20863;-54
2023/09/02 03:45:27;;;;;;;0.93;0.57;;;18.80;75.40;;;;;;5044966;28;20471;-54
2023/09/02 03:47:56;;;;;;;1.73;0.80;;;18.80;75.40;;;;;;5030925;28;20475;-53
2023/09/02 03:50:27;;;;;;;1.30;0.70;;;18.80;75.50;;;;;;5035954;28;20457;-54
2023/09/02 03:52:56;;;;;;;2.00;0.77;;;18.70;75.60;;;;;;5053082;28;20450;-53
2023/09/02 03:55:27;;;;;;;0.90;0.60;;;18.70;75.70;;;;;;5053283;28;20487;-53
2023/09/02 03:57:55;;;;;;;1.23;0.87;;;18.70;75.80;;;;;;5056172;28;20457;-51
2023/09/02 04:00:26;;;;;;;2.07;0.70;;;18.70;76.00;;;;;;5015818;28;20448;-54
2023/09/02 04:02:56;;;;;;;1.67;0.73;;;18.70;75.70;;;;;;5053243;28;20448;-53
2023/09/02 04:05:24;;;;;;;1.80;1.00;;;18.70;75.80;;;;;;5052273;28;20442;-54
2023/09/02 04:07:53;;;;;;;1.87;1.00;;;18.70;75.70;;;;;;5045141;28;20491;-54
2023/09/02 04:10:22;;;;;;;2.10;0.83;;;18.70;75.80;;;;;;5056872;28;20525;-53
2023/09/02 04:12:51;;;;;;;5.43;0.90;;;18.70;75.60;;;;;;5053967;28;20958;-53
2023/09/02 04:15:20;;;;;;;1.10;0.70;;;18.70;75.60;;;;;;5013849;28;20902;-54
2023/09/02 04:17:49;;;;;;;1.70;0.73;;;18.70;75.50;;;;;;5053490;28;20830;-54
2023/09/02 04:20:17;;;;;;;1.80;0.80;;;18.70;75.50;;;;;;5050095;28;20463;-52
2023/09/02 04:22:46;;;;;;;0.93;0.70;;;18.70;75.60;;;;;;5019598;28;20478;-53
2023/09/02 04:25:16;;;;;;;1.10;0.73;;;18.70;75.40;;;;;;5053581;28;20644;-52
2023/09/02 04:27:44;;;;;;;1.33;0.87;;;18.70;75.60;;;;;;5020527;28;20895;-52
2023/09/02 04:30:17;;;;;;;2.20;0.70;;;18.70;75.70;;;;;;5012131;28;20961;-52
2023/09/02 04:32:47;;;;;;;1.43;0.87;;;18.70;75.70;;;;;;5048552;28;20474;-52
2023/09/02 04:35:17;;;;;;;1.30;0.87;;;18.70;75.80;;;;;;5051447;28;20638;-51
2023/09/02 04:37:45;;;;;;;1.10;0.70;;;18.70;75.40;;;;;;5017560;28;20487;-52
2023/09/02 04:40:14;;;;;;;1.30;0.90;;;18.70;75.70;;;;;;5052221;28;20446;-52
2023/09/02 04:42:43;;;;;;;1.43;0.70;;;18.70;75.70;;;;;;5052194;28;21040;-53
2023/09/02 04:45:11;;;;;;;1.10;0.67;;;18.70;75.50;;;;;;5009580;28;20976;-54
2023/09/02 04:47:41;;;;;;;1.10;0.70;;;18.70;75.40;;;;;;5054297;28;20497;-54
2023/09/02 04:50:11;;;;;;;1.37;0.70;;;18.70;75.40;;;;;;5019787;28;20883;-54
2023/09/02 04:52:40;;;;;;;0.90;0.50;;;18.70;75.30;;;;;;5011188;28;20472;-52
2023/09/02 04:55:10;;;;;;;1.10;0.63;;;18.70;75.20;;;;;;5051570;28;20521;-53
2023/09/02 04:57:38;;;;;;;1.43;0.77;;;18.70;76.40;;;;;;5004768;28;20471;-52
2023/09/02 05:00:09;;;;;;;1.23;0.73;;;18.70;75.20;;;;;;5043836;28;20441;-52
2023/09/02 05:02:42;;;;;;;0.90;0.60;;;18.70;75.30;;;;;;5051627;28;20471;-54
2023/09/02 05:05:11;;;;;;;1.20;0.60;;;18.70;75.20;;;;;;5013781;28;20520;-51
2023/09/02 05:07:40;;;;;;;1.30;0.53;;;18.70;75.20;;;;;;5010941;28;20482;-50
2023/09/02 05:10:09;;;;;;;1.23;0.87;;;18.70;75.10;;;;;;5052702;28;20464;-52
2023/09/02 05:12:37;;;;;;;1.20;0.80;;;18.70;75.20;;;;;;5018968;28;20471;-51
2023/09/02 05:15:07;;;;;;;1.00;0.53;;;18.70;75.20;;;;;;5046496;28;20452;-50
2023/09/02 05:17:36;;;;;;;1.00;0.60;;;18.70;75.10;;;;;;5053697;28;20958;-50
2023/09/02 05:20:12;;;;;;;0.90;0.60;;;18.70;75.10;;;;;;5045387;28;20436;-51
2023/09/02 05:22:40;;;;;;;2.53;0.97;;;18.70;75.20;;;;;;5040504;28;20565;-51
2023/09/02 05:25:10;;;;;;;1.20;0.60;;;18.70;75.20;;;;;;5049555;28;20448;-49
2023/09/02 05:27:39;;;;;;;1.40;0.80;;;18.70;75.20;;;;;;5046026;28;20496;-49
2023/09/02 05:30:09;;;;;;;1.40;0.80;;;18.70;75.60;;;;;;5016140;28;20499;-51
2023/09/02 05:32:37;;;;;;;1.20;0.80;;;18.70;75.80;;;;;;5050456;28;20476;-51
2023/09/02 05:35:06;;;;;;;1.37;0.60;;;18.60;75.70;;;;;;5016927;28;21015;-52
2023/09/02 05:37:36;;;;;;;1.30;1.00;;;18.60;75.60;;;;;;5042356;28;21082;-53
2023/09/02 05:40:05;;;;;;;1.00;0.70;;;18.60;75.40;;;;;;5050749;28;20451;-52
2023/09/02 05:42:34;;;;;;;0.90;0.50;;;18.60;75.20;;;;;;5046854;28;20641;-52
2023/09/02 05:45:02;;;;;;;1.00;0.60;;;18.70;75.20;;;;;;5042654;28;20894;-53
2023/09/02 05:47:31;;;;;;;1.20;0.77;;;18.60;75.20;;;;;;5032504;28;20468;-50
2023/09/02 05:50:00;;;;;;;1.00;0.63;;;18.60;75.20;;;;;;5009268;28;20476;-53
2023/09/02 05:52:29;;;;;;;1.70;0.80;;;18.60;75.20;;;;;;5050617;28;20897;-51
2023/09/02 05:54:59;;;;;;;1.03;0.77;;;18.60;75.20;;;;;;5045513;28;20953;-52
2023/09/02 05:57:30;;;;;;;0.90;0.50;;;18.60;75.10;;;;;;5038693;28;20589;-53
2023/09/02 05:59:59;;;;;;;1.07;0.70;;;18.60;75.00;;;;;;5039745;28;20447;-53
2023/09/02 06:02:27;;;;;;;1.30;0.70;;;18.60;75.00;;;;;;5046309;28;20472;-54
2023/09/02 06:04:56;;;;;;;1.10;0.70;;;18.60;75.00;;;;;;5048861;28;20529;-52
2023/09/02 06:07:25;;;;;;;3.07;1.87;;;18.60;75.20;;;;;;5045967;28;21253;-51
2023/09/02 06:09:53;;;;;;;1.67;0.90;;;18.60;76.20;;;;;;5040613;28;20453;-51
2023/09/02 06:12:23;;;;;;;1.30;0.80;;;18.60;75.70;;;;;;4998405;28;20487;-51
2023/09/02 06:14:51;;;;;;;1.53;1.20;;;18.60;75.70;;;;;;5042055;28;20451;-51
2023/09/02 06:17:24;;;;;;;1.90;0.80;;;18.60;76.30;;;;;;5013209;28;20480;-52
2023/09/02 06:19:52;;;;;;;1.30;0.90;;;18.60;75.90;;;;;;5040392;28;20573;-49
2023/09/02 06:22:21;;;;;;;1.27;0.80;;;18.60;76.20;;;;;;5037501;28;20476;-53
2023/09/02 06:24:49;;;;;;;1.00;0.70;;;18.60;75.60;;;;;;5035685;28;20764;-53
2023/09/02 06:27:18;;;;;;;1.17;0.83;;;18.60;75.40;;;;;;5015250;28;20469;-51
2023/09/02 06:29:48;;;;;;;1.00;0.50;;;18.60;75.60;;;;;;5042231;28;20476;-52
2023/09/02 06:32:16;;;;;;;1.00;0.57;;;18.60;75.40;;;;;;5009974;28;20493;-51
2023/09/02 06:34:48;;;;;;;1.33;0.83;;;18.60;75.20;;;;;;5035555;28;20844;-50
2023/09/02 06:37:16;;;;;;;1.23;0.60;;;18.60;75.20;;;;;;5023153;28;20472;-51
2023/09/02 06:39:45;;;;;;;1.00;0.60;;;18.60;75.20;;;;;;5035963;28;20446;-51
2023/09/02 06:42:13;;;;;;;1.00;0.73;;;18.60;75.20;;;;;;5044681;28;20461;-52
2023/09/02 06:44:42;;;;;;;1.10;0.70;;;18.60;75.60;;;;;;5017308;28;20451;-53
2023/09/02 06:47:11;;;;;;;1.00;0.60;;;18.60;75.30;;;;;;5014660;28;20490;-52
2023/09/02 06:49:40;;;;;;;2.63;0.90;;;18.60;75.90;;;;;;5047890;28;20569;-52
2023/09/02 06:52:09;;;;;;;1.00;0.80;;;18.60;76.40;;;;;;5006565;28;20515;-52
2023/09/02 06:54:37;;;;;;;1.00;0.60;;;18.60;76.40;;;;;;5031765;28;20535;-52
2023/09/02 06:57:06;;;;;;;1.10;1.00;;;18.60;75.30;;;;;;5043339;28;20479;-53
2023/09/02 06:59:34;;;;;;;1.10;0.70;;;18.60;75.20;;;;;;5034946;28;20440;-50
2023/09/02 07:02:03;;;;;;;1.10;0.60;;;18.60;75.20;;;;;;5040806;28;20538;-52
2023/09/02 07:04:33;;;;;;;1.00;0.67;;;18.60;75.10;;;;;;5029707;28;20441;-53
2023/09/02 07:07:02;;;;;;;1.20;0.87;;;18.60;75.20;;;;;;5039187;28;20494;-51
2023/09/02 07:09:30;;;;;;;1.17;0.63;;;18.60;75.10;;;;;;5033910;28;20527;-52
2023/09/02 07:11:59;;;;;;;1.10;0.63;;;18.60;75.20;;;;;;5043728;28;20474;-50
2023/09/02 07:14:27;;;;;;;1.00;0.60;;;18.60;75.10;;;;;;5018274;28;20436;-51
2023/09/02 07:16:56;;;;;;;1.43;0.90;;;18.60;75.20;;;;;;5042431;28;20479;-51
2023/09/02 07:19:25;;;;;;;1.27;0.70;;;18.60;75.10;;;;;;5016689;28;20821;-51
2023/09/02 07:21:57;;;;;;;1.00;0.60;;;18.60;74.90;;;;;;5022979;28;20490;-51
2023/09/02 07:24:26;;;;;;;1.10;0.70;;;18.60;75.00;;;;;;5053643;28;20444;-54
2023/09/02 07:26:55;;;;;;;1.63;0.70;;;18.60;74.80;;;;;;5016420;28;21070;-50
2023/09/02 07:29:23;;;;;;;1.10;0.70;;;18.70;74.90;;;;;;5044680;28;20513;-52
2023/09/02 07:31:52;;;;;;;0.90;0.50;;;18.60;74.90;;;;;;5019297;28;20706;-51
2023/09/02 07:34:21;;;;;;;1.10;0.70;;;18.70;74.70;;;;;;5048317;28;20780;-53
2023/09/02 07:36:49;;;;;;;2.20;0.80;;;18.70;74.70;;;;;;5053188;28;20507;-51
2023/09/02 07:39:19;;;;;;;1.27;0.60;;;18.70;74.70;;;;;;5048271;28;20465;-53
2023/09/02 07:41:48;;;;;;;1.00;0.60;;;18.70;74.60;;;;;;5017315;28;20904;-51
2023/09/02 07:44:17;;;;;;;1.00;0.53;;;18.70;74.80;;;;;;5066544;28;20459;-52
2023/09/02 07:46:45;;;;;;;1.20;0.50;;;18.70;74.70;;;;;;5038406;28;20567;-53
2023/09/02 07:49:14;;;;;;;1.43;0.80;;;18.70;74.60;;;;;;5017592;28;20968;-52
2023/09/02 07:51:44;;;;;;;1.00;0.50;;;18.70;74.60;;;;;;5009620;28;20506;-53
2023/09/02 07:54:14;;;;;;;0.90;0.50;;;18.70;74.50;;;;;;5031346;28;20472;-51
2023/09/02 07:56:44;;;;;;;1.33;0.87;;;18.70;74.50;;;;;;5031032;28;20838;-52
2023/09/02 07:59:12;;;;;;;1.30;0.60;;;18.70;74.50;;;;;;5049601;28;20462;-53
2023/09/02 08:01:41;;;;;;;1.57;0.60;;;18.70;74.50;;;;;;5046242;28;20460;-53
2023/09/02 08:04:09;;;;;;;1.00;0.63;;;18.70;74.50;;;;;;5049806;28;20962;-52
2023/09/02 08:06:38;;;;;;;2.00;0.73;;;18.70;74.50;;;;;;5010764;28;21000;-52
2023/09/02 08:09:07;;;;;;;1.00;0.63;;;18.70;74.50;;;;;;5055568;28;20461;-52
2023/09/02 08:11:38;;;;;;;1.10;0.70;;;18.70;74.40;;;;;;5004421;28;20456;-53
2023/09/02 08:14:08;;;;;;;0.83;0.40;;;18.70;74.40;;;;;;5036858;28;20444;-52
2023/09/02 08:16:37;;;;;;;1.10;0.63;;;18.70;74.30;;;;;;5045367;28;20489;-53
2023/09/02 08:19:06;;;;;;;1.30;0.70;;;18.70;74.40;;;;;;5022176;28;20865;-52
2023/09/02 08:21:35;;;;;;;1.00;0.60;;;18.70;75.60;;;;;;5042026;28;20919;-52
2023/09/02 08:24:04;;;;;;;1.10;0.67;;;18.70;74.40;;;;;;5031083;28;20798;-53
2023/09/02 08:26:32;;;;;;;1.17;0.63;;;18.70;74.40;;;;;;5051460;28;20974;-52
2023/09/02 08:29:01;;;;;;;1.03;0.40;;;18.70;74.40;;;;;;5018332;28;21077;-53
2023/09/02 08:31:30;;;;;;;1.50;1.00;;;18.70;74.30;;;;;;5046635;28;20558;-53
2023/09/02 08:33:59;;;;;;;1.20;0.50;;;18.70;74.30;;;;;;5051302;28;20443;-52
2023/09/02 08:36:28;;;;;;;0.93;0.47;;;18.70;74.40;;;;;;5042707;28;21210;-52
2023/09/02 08:38:58;;;;;;;1.20;0.70;;;18.70;74.50;;;;;;5015854;28;20456;-52
2023/09/02 08:41:30;;;;;;;1.00;0.50;;;18.70;74.20;;;;;;5030589;28;20474;-51
2023/09/02 08:44:03;;;;;;;1.00;0.60;;;18.70;74.30;;;;;;5044387;28;20449;-54
2023/09/02 08:46:38;;;;;;;1.00;0.50;;;18.70;74.20;;;;;;5044163;28;20471;-52
2023/09/02 08:49:06;;;;;;;1.00;0.50;;;18.70;74.30;;;;;;5049238;28;20507;-51
2023/09/02 08:51:36;;;;;;;1.00;0.53;;;18.80;74.40;;;;;;5009278;28;21141;-52
2023/09/02 08:54:05;;;;;;;1.17;0.60;;;18.70;74.30;;;;;;5046525;28;20471;-51
2023/09/02 08:56:37;;;;;;;0.97;0.50;;;18.70;74.30;;;;;;5010044;28;20534;-52
2023/09/02 08:59:05;;;;;;;1.10;0.50;;;18.70;74.30;;;;;;5044780;28;20888;-52
2023/09/02 09:01:41;;;;;;;0.90;0.50;;;18.70;74.20;;;;;;5016078;28;20455;-52
2023/09/02 09:04:10;;;;;;;0.90;0.50;;;18.70;74.30;;;;;;5051528;28;20463;-52
2023/09/02 09:06:39;;;;;;;1.03;0.50;;;18.70;74.30;;;;;;5010408;28;20493;-52
2023/09/02 09:09:09;;;;;;;1.13;0.70;;;18.80;75.00;;;;;;5041893;28;20464;-52
2023/09/02 09:11:44;;;;;;;0.97;0.63;;;18.80;74.40;;;;;;5005369;28;20471;-52
2023/09/02 09:14:21;;;;;;;1.07;0.70;;;18.80;74.50;;;;;;5042862;28;20872;-52
2023/09/02 09:16:54;;;;;;;1.17;0.60;;;18.80;75.70;;;;;;5047436;28;20524;-53
2023/09/02 09:19:24;;;;;;;1.00;0.50;;;18.80;74.40;;;;;;5015544;28;20499;-53
2023/09/02 09:21:52;;;;;;;1.20;0.50;;;18.80;74.50;;;;;;5005297;28;20476;-52
2023/09/02 09:24:21;;;;;;;1.13;0.50;;;18.80;74.60;;;;;;5052115;28;20479;-52
2023/09/02 09:26:52;;;;;;;1.10;0.70;;;18.80;74.60;;;;;;5049487;28;20550;-51
2023/09/02 09:29:21;;;;;;;1.03;0.60;;;18.80;74.60;;;;;;5047676;28;20495;-52
2023/09/02 09:32:08;;;;;;;1.33;0.80;;;18.80;74.90;;;;;;5009709;28;20476;-52
2023/09/02 09:34:37;;;;;;;1.13;0.70;;;18.80;74.60;;;;;;5033874;28;20443;-51
2023/09/02 09:37:08;;;;;;;1.63;0.67;;;18.80;74.70;;;;;;5035066;28;20465;-53
2023/09/02 09:39:41;;;;;;;1.10;0.60;;;18.80;74.70;;;;;;5030777;28;20463;-52
2023/09/02 09:42:11;;;;;;;1.40;0.70;;;18.80;74.70;;;;;;5016750;28;20544;-52
2023/09/02 09:44:55;;;;;;;1.20;0.60;;;18.80;74.70;;;;;;5020778;28;20452;-52
2023/09/02 09:47:27;;;;;;;2.10;0.80;;;18.80;75.50;;;;;;5015625;28;20891;-50
2023/09/02 09:50:12;;;;;;;1.10;0.60;;;18.90;76.20;;;;;;5030249;28;20239;-53
2023/09/02 09:52:41;;;;;;;1.50;0.67;;;18.90;74.80;;;;;;5027513;28;20546;-52
2023/09/02 09:55:24;;;;;;;2.70;1.10;;;18.90;74.60;;;;;;5045162;28;20439;-52
2023/09/02 09:57:57;;;;;;;1.27;0.70;;;18.90;76.30;;;;;;5044118;28;20457;-52
2023/09/02 10:00:26;;;;;;;1.20;0.73;;;18.90;76.60;;;;;;5042094;28;20449;-52
2023/09/02 10:02:57;;;;;;;1.37;0.73;;;18.90;76.40;;;;;;5044345;28;20950;-53
2023/09/02 10:05:26;;;;;;;1.33;0.80;;;18.90;76.30;;;;;;5051751;28;20460;-51
2023/09/02 10:08:00;;;;;;;1.30;0.80;;;18.90;76.50;;;;;;5038925;28;20858;-53
2023/09/02 10:10:30;;;;;;;1.30;0.60;;;18.90;76.60;;;;;;5051941;28;20485;-53
2023/09/02 10:12:59;;;;;;;2.07;0.90;;;18.90;76.50;;;;;;5046974;28;20479;-52
2023/09/02 10:15:28;;;;;;;1.10;0.70;;;18.90;76.50;;;;;;5047387;28;20453;-52
2023/09/02 10:18:03;;;;;;;3.00;0.80;;;18.90;76.50;;;;;;5047185;28;20477;-53
2023/09/02 10:20:33;;;;;;;1.10;0.60;;;18.90;76.30;;;;;;5038264;28;20527;-50
2023/09/02 10:23:06;;;;;;;1.23;0.60;;;18.80;76.20;;;;;;5024539;28;20435;-50
2023/09/02 10:25:45;;;;;;;1.87;0.80;;;18.80;76.20;;;;;;5041216;28;20442;-52
2023/09/02 10:28:20;;;;;;;1.17;0.63;;;18.90;76.20;;;;;;5040861;28;20491;-51
2023/09/02 10:30:51;;;;;;;1.07;0.83;;;18.90;76.10;;;;;;5037174;28;20472;-50
2023/09/02 10:33:31;;;;;;;1.60;0.67;;;18.90;76.10;;;;;;5043552;28;20836;-52
2023/09/02 10:36:04;;;;;;;1.30;0.90;;;18.90;76.10;;;;;;5041566;28;20994;-52
2023/09/02 10:38:39;;;;;;;1.40;0.60;;;18.90;76.20;;;;;;5047068;28;20459;-52
2023/09/02 10:41:12;;;;;;;1.13;0.70;;;18.90;76.10;;;;;;5044064;28;20461;-52
2023/09/02 10:43:42;;;;;;;1.00;0.70;;;18.90;76.00;;;;;;5043780;28;20874;-50
2023/09/02 10:46:11;;;;;;;1.47;0.90;;;18.90;76.00;;;;;;5043557;28;20459;-53
2023/09/02 10:48:44;;;;;;;1.00;0.60;;;18.90;76.20;;;;;;5010604;28;20994;-51
2023/09/02 10:51:15;;;;;;;1.60;0.70;;;18.90;76.00;;;;;;5044411;28;20481;-51
2023/09/02 10:54:02;;;;;;;1.33;0.70;;;18.90;77.30;;;;;;5045580;28;20426;-52
2023/09/02 10:56:32;;;;;;;1.20;0.63;;;18.90;76.10;;;;;;5047753;28;20462;-51
2023/09/02 10:59:01;;;;;;;1.13;0.73;;;18.90;76.00;;;;;;5013704;28;20460;-51
2023/09/02 11:01:48;;;;;;;1.87;0.63;;;18.90;76.00;;;;;;5011917;28;20661;-53
2023/09/02 11:04:56;;;;;;;1.10;0.63;;;18.90;76.10;;;;;;5042375;28;21035;-51
2023/09/02 11:07:28;;;;;;;1.47;0.60;;;18.90;76.10;;;;;;5044254;28;20567;-52
2023/09/02 11:09:58;;;;;;;1.00;0.50;;;18.90;75.90;;;;;;5041642;28;20844;-52
2023/09/02 11:12:27;;;;;;;1.00;0.50;;;18.90;75.90;;;;;;5049630;28;21018;-51
2023/09/02 11:15:16;;;;;;;1.07;0.70;;;18.90;76.00;;;;;;5037063;28;20502;-51
2023/09/02 11:17:45;;;;;;;1.10;0.60;;;18.90;76.00;;;;;;5005441;28;20572;-51
2023/09/02 11:20:18;;;;;;;1.43;0.70;;;18.90;76.10;;;;;;5013435;28;20519;-53
2023/09/02 11:22:55;;;;;;;1.10;0.63;;;18.90;76.00;;;;;;5005491;28;20463;-51
2023/09/02 11:25:36;;;;;;;1.40;0.80;;;18.90;75.90;;;;;;5028977;28;20806;-52
2023/09/02 11:28:07;;;;;;;1.23;0.80;;;18.90;76.00;;;;;;5027359;28;20593;-52
2023/09/02 11:30:37;;;;;;;2.30;0.93;;;18.90;76.10;;;;;;5025784;28;20568;-52
2023/09/02 11:33:06;;;;;;;1.97;0.90;;;18.90;76.30;;;;;;5052694;28;20469;-52
2023/09/02 11:35:38;;;;;;;1.00;0.63;;;18.90;75.90;;;;;;5005642;28;20479;-52
2023/09/02 11:38:18;;;;;;;1.17;0.60;;;18.90;75.90;;;;;;5033791;28;20483;-51
2023/09/02 11:40:47;;;;;;;16.87;2.40;;;18.90;75.90;;;;;;5038090;28;20478;-53
2023/09/02 11:43:19;;;;;;;3.00;1.60;;;19.00;90.80;;;;;;5023142;28;20446;-52
2023/09/02 11:45:53;;;;;;;2.03;1.33;;;19.20;89.50;;;;;;5037855;28;20453;-53
2023/09/02 11:48:25;;;;;;;1.77;0.90;;;19.20;86.20;;;;;;5043761;28;20489;-51
2023/09/02 11:50:58;;;;;;;2.10;1.00;;;19.20;79.60;;;;;;5008536;28;20471;-52
2023/09/02 11:53:27;;;;;;;2.10;1.20;;;19.20;80.20;;;;;;5037192;28;20479;-51
2023/09/02 11:55:56;;;;;;;1.77;1.20;;;19.20;80.90;;;;;;5021908;28;20465;-53
2023/09/02 11:58:25;;;;;;;3.10;1.10;;;19.20;81.00;;;;;;5043555;28;20464;-52
2023/09/02 12:00:53;;;;;;;1.73;0.93;;;19.20;80.10;;;;;;5008649;28;20471;-52
2023/09/02 12:03:27;;;;;;;2.30;1.30;;;19.20;80.30;;;;;;5020484;28;20480;-52
2023/09/02 12:06:00;;;;;;;2.53;1.10;;;19.10;80.20;;;;;;5034135;28;21057;-53
2023/09/02 12:08:30;;;;;;;1.70;1.03;;;19.10;80.30;;;;;;5037503;28;21153;-52
2023/09/02 12:11:03;;;;;;;2.00;0.90;;;19.10;80.50;;;;;;5040674;28;20861;-50
2023/09/02 12:13:33;;;;;;;1.70;1.03;;;19.10;80.50;;;;;;5001523;28;20510;-50
2023/09/02 12:16:01;;;;;;;2.03;1.10;;;19.10;80.70;;;;;;5040245;28;20444;-51
2023/09/02 12:18:31;;;;;;;1.20;1.00;;;19.10;80.50;;;;;;5046011;28;20478;-50
2023/09/02 12:21:00;;;;;;;1.43;1.17;;;19.10;80.40;;;;;;5044030;28;22312;-50
2023/09/02 12:23:29;;;;;;;2.03;1.23;;;19.10;80.30;;;;;;5044872;28;20452;-50
2023/09/02 12:26:05;;;;;;;1.70;0.90;;;19.10;80.30;;;;;;5030206;28;20444;-53
2023/09/02 12:28:34;;;;;;;1.70;0.73;;;19.10;80.10;;;;;;5022871;28;21005;-51
2023/09/02 12:31:04;;;;;;;2.13;0.80;;;19.10;80.00;;;;;;5046993;28;20474;-49
2023/09/02 12:33:33;;;;;;;2.20;1.30;;;19.10;79.90;;;;;;5032191;28;20551;-52
2023/09/02 12:36:08;;;;;;;2.97;1.20;;;19.20;80.20;;;;;;5022991;28;20967;-51
2023/09/02 12:38:50;;;;;;;1.27;0.80;;;19.20;80.00;;;;;;5049827;28;20476;-51
2023/09/02 12:41:19;;;;;;;1.40;0.87;;;19.20;79.80;;;;;;5009932;28;20480;-53
2023/09/02 12:43:47;;;;;;;1.90;1.10;;;19.20;79.70;;;;;;5040205;28;20430;-51
2023/09/02 12:46:21;;;;;;;1.20;0.73;;;19.20;79.60;;;;;;5043813;28;20969;-50
2023/09/02 12:48:50;;;;;;;1.93;0.87;;;19.20;79.50;;;;;;5043706;28;20534;-53
2023/09/02 12:51:28;;;;;;;3.73;1.93;;;19.20;79.60;;;;;;5007003;28;20562;-52
2023/09/02 12:53:59;;;;;;;2.80;0.73;;;19.20;79.50;;;;;;5002237;28;20481;-53
2023/09/02 12:56:28;;;;;;;1.67;1.00;;;19.20;79.40;;;;;;5013692;28;20453;-53
2023/09/02 12:58:57;;;;;;;1.43;0.97;;;19.30;79.50;;;;;;5025083;28;20879;-51
2023/09/02 13:01:26;;;;;;;1.37;1.00;;;19.30;79.60;;;;;;5044732;28;20538;-54
2023/09/02 13:03:55;;;;;;;1.20;0.87;;;19.30;79.40;;;;;;5014247;28;20471;-52